Kempton, Indiana
Current Conditions -  °F | °C
As of 10:55 PM on Saturday 25 Oct 2014 (Local Time) from KTYQ Reporting Station
Clear Clear  
Wind Chill: 59°   Ceiling: Unl
Heat Index: 59°   Visibility: 10mi
Dew Point: 38°   Wind: 7mph
Humidity: 45%   Direction: 300°WNW
Pressure: 29.96"   Gusts: NA
Location:  40.29°N, 86.23°W
Report Text: KTYQ 260255Z AUTO 30006KT 10SM CLR 15/03 A2996 RMK AO2 T01490031
Loading
Personal Weather Stations






























Interactive Weather Map
Tropical Storm Tracking
New forecast layout! Learn more

10-Day Weather Forecast

Advertisements
Track Severe Weather on mobile